createdAt,value
2023-03-27T00:01:14.828Z,13.18
2023-03-27T00:03:42.774Z,19.38
2023-03-27T00:06:12.073Z,18.50
2023-03-27T00:08:38.846Z,13.32
2023-03-27T00:11:07.908Z,18.95
2023-03-27T00:13:35.290Z,18.67
2023-03-27T00:16:02.787Z,19.15
2023-03-27T00:18:29.750Z,21.23
2023-03-27T00:21:03.038Z,15.98
2023-03-27T00:23:30.862Z,17.25
2023-03-27T00:25:58.271Z,14.88
2023-03-27T00:28:27.218Z,13.60
2023-03-27T00:30:55.806Z,22.95
2023-03-27T00:33:23.915Z,15.77
2023-03-27T00:35:51.166Z,21.58
2023-03-27T00:38:18.699Z,17.70
2023-03-27T00:40:46.924Z,14.40
2023-03-27T00:43:24.517Z,19.90
2023-03-27T00:45:55.290Z,11.70
2023-03-27T00:48:23.021Z,20.45
2023-03-27T00:50:49.996Z,14.68
2023-03-27T00:53:22.449Z,12.30
2023-03-27T00:55:53.004Z,18.98
2023-03-27T00:58:33.590Z,11.30
2023-03-27T01:01:00.363Z,13.55
2023-03-27T01:03:31.548Z,11.95
2023-03-27T01:06:01.752Z,12.30
2023-03-27T01:08:31.937Z,16.77
2023-03-27T01:11:07.602Z,22.92
2023-03-27T01:13:59.003Z,11.68
2023-03-27T01:16:34.525Z,25.65
2023-03-27T01:19:21.338Z,22.42
2023-03-27T01:21:53.700Z,15.70
2023-03-27T01:24:52.249Z,17.50
2023-03-27T01:27:31.111Z,20.65
2023-03-27T01:29:57.728Z,11.93
2023-03-27T01:32:55.515Z,16.38
2023-03-27T01:35:37.000Z,17.50
2023-03-27T01:38:25.186Z,12.38
2023-03-27T01:41:01.767Z,15.35
2023-03-27T01:43:37.784Z,17.65
2023-03-27T01:46:15.252Z,12.40
2023-03-27T01:48:56.128Z,10.93
2023-03-27T01:51:43.846Z,11.60
2023-03-27T01:54:19.318Z,18.80
2023-03-27T01:57:02.512Z,20.33
2023-03-27T01:59:33.772Z,15.43
2023-03-27T02:02:05.328Z,17.20
2023-03-27T02:04:41.779Z,12.50
2023-03-27T02:07:15.795Z,15.18
2023-03-27T02:09:49.114Z,11.60
2023-03-27T02:12:23.681Z,16.92
2023-03-27T02:15:24.577Z,14.60
2023-03-27T02:17:52.522Z,13.68
2023-03-27T02:20:20.311Z,18.05
2023-03-27T02:22:50.370Z,13.82
2023-03-27T02:25:47.065Z,18.65
2023-03-27T02:28:48.731Z,16.00
2023-03-27T02:31:42.966Z,14.15
2023-03-27T02:34:38.452Z,19.20
2023-03-27T02:37:32.728Z,11.93
2023-03-27T02:40:29.131Z,16.27
2023-03-27T02:43:07.201Z,14.48
2023-03-27T02:46:06.392Z,16.15
2023-03-27T02:48:36.348Z,22.85
2023-03-27T02:51:43.269Z,20.60
2023-03-27T02:54:14.921Z,9.48
2023-03-27T02:56:49.518Z,15.45
2023-03-27T02:59:18.985Z,8.80
2023-03-27T03:01:45.733Z,13.15
2023-03-27T03:04:19.895Z,16.45
2023-03-27T03:06:46.553Z,16.92
2023-03-27T03:09:14.859Z,13.23
2023-03-27T03:11:54.449Z,18.40
2023-03-27T03:14:30.606Z,11.35
2023-03-27T03:16:57.302Z,9.60
2023-03-27T03:19:27.182Z,19.48
2023-03-27T03:21:53.824Z,19.20
2023-03-27T03:24:22.176Z,13.80
2023-03-27T03:26:52.242Z,22.02
2023-03-27T03:29:19.268Z,19.77
2023-03-27T03:31:46.034Z,17.80
2023-03-27T03:34:18.322Z,15.52
2023-03-27T03:36:49.407Z,26.17
2023-03-27T03:39:17.144Z,13.48
2023-03-27T03:41:43.638Z,15.65
2023-03-27T03:44:10.488Z,16.02
2023-03-27T03:46:37.130Z,16.73
2023-03-27T03:49:06.856Z,15.60
2023-03-27T03:51:34.661Z,13.13
2023-03-27T03:54:01.596Z,8.00
2023-03-27T03:56:30.566Z,17.38
2023-03-27T03:58:57.896Z,17.35
2023-03-27T04:01:26.070Z,10.07
2023-03-27T04:03:52.967Z,20.95
2023-03-27T04:06:25.254Z,16.25
2023-03-27T04:08:53.072Z,17.70
2023-03-27T04:11:19.991Z,13.73
2023-03-27T04:13:46.595Z,13.57
2023-03-27T04:16:13.132Z,10.18
2023-03-27T04:18:41.503Z,16.48
2023-03-27T04:21:16.112Z,15.70
2023-03-27T04:23:45.130Z,13.80
2023-03-27T04:26:12.617Z,12.82
2023-03-27T04:28:39.787Z,15.93
2023-03-27T04:31:07.878Z,10.40
2023-03-27T04:33:39.223Z,16.10
2023-03-27T04:36:08.277Z,14.57
2023-03-27T04:38:36.986Z,15.82
2023-03-27T04:41:04.332Z,15.43
2023-03-27T04:43:31.625Z,14.57
2023-03-27T04:45:58.178Z,10.20
2023-03-27T04:48:24.735Z,13.43
2023-03-27T04:50:51.399Z,18.80
2023-03-27T04:53:20.525Z,14.10
2023-03-27T04:55:51.116Z,16.42
2023-03-27T04:58:18.606Z,15.07
2023-03-27T05:00:50.432Z,18.92
2023-03-27T05:03:20.502Z,5.78
2023-03-27T05:05:49.530Z,12.95
2023-03-27T05:08:16.922Z,8.80
2023-03-27T05:10:44.518Z,16.80
2023-03-27T05:13:11.668Z,15.23
2023-03-27T05:15:38.986Z,14.32
2023-03-27T05:18:07.182Z,10.73
2023-03-27T05:20:34.640Z,13.38
2023-03-27T05:23:01.407Z,10.57
2023-03-27T05:25:31.995Z,12.50
2023-03-27T05:27:59.768Z,13.43
2023-03-27T05:30:26.985Z,12.20
2023-03-27T05:32:53.943Z,11.95
2023-03-27T05:35:23.393Z,11.70
2023-03-27T05:37:52.581Z,18.30
2023-03-27T05:40:22.254Z,13.60
2023-03-27T05:42:51.135Z,15.35
2023-03-27T05:45:18.422Z,11.13
2023-03-27T05:47:47.998Z,18.55
2023-03-27T05:50:16.094Z,11.52
2023-03-27T05:52:42.798Z,12.65
2023-03-27T05:55:10.371Z,5.47
2023-03-27T05:57:41.161Z,15.77
2023-03-27T06:00:13.917Z,18.35
2023-03-27T06:02:43.392Z,11.38
2023-03-27T06:05:15.148Z,12.82
2023-03-27T06:07:43.422Z,15.75
2023-03-27T06:10:13.642Z,7.65
2023-03-27T06:12:41.676Z,11.45
2023-03-27T06:15:09.696Z,11.98
2023-03-27T06:17:39.399Z,13.27
2023-03-27T06:20:12.347Z,13.30
2023-03-27T06:22:42.608Z,10.88
2023-03-27T06:25:09.481Z,10.63
2023-03-27T06:27:35.973Z,15.93
2023-03-27T06:30:02.456Z,10.20
2023-03-27T06:32:28.955Z,15.77
2023-03-27T06:34:55.480Z,13.38
2023-03-27T06:37:24.957Z,8.73
2023-03-27T06:39:51.650Z,13.35
2023-03-27T06:42:18.455Z,8.35
2023-03-27T06:44:44.972Z,13.50
2023-03-27T06:47:12.660Z,15.43
2023-03-27T06:49:39.226Z,12.60
2023-03-27T06:52:05.818Z,10.35
2023-03-27T06:54:32.350Z,6.70
2023-03-27T06:57:01.232Z,11.30
2023-03-27T06:59:27.775Z,13.02
2023-03-27T07:01:54.314Z,7.72
2023-03-27T07:04:21.305Z,8.73
2023-03-27T07:06:48.940Z,9.73
2023-03-27T07:09:15.627Z,9.68
2023-03-27T07:11:42.491Z,9.88
2023-03-27T07:14:09.032Z,16.38
2023-03-27T07:16:35.715Z,13.05
2023-03-27T07:19:02.671Z,7.95
2023-03-27T07:21:29.571Z,11.48
2023-03-27T07:23:56.172Z,2.80
2023-03-27T07:26:22.740Z,6.35
2023-03-27T07:28:50.569Z,11.60
2023-03-27T07:33:46.803Z,8.75
2023-03-27T07:36:14.191Z,4.18
2023-03-27T07:38:42.141Z,3.88
2023-03-27T07:41:09.290Z,9.00
2023-03-27T07:43:35.885Z,2.17
2023-03-27T07:46:03.342Z,1.08
2023-03-27T07:48:30.482Z,7.00
2023-03-27T07:51:10.637Z,8.57
2023-03-27T07:53:39.642Z,1.30
2023-03-27T07:56:08.782Z,5.07
2023-03-27T07:58:35.472Z,5.90
2023-03-27T08:01:02.775Z,3.90
2023-03-27T08:03:30.809Z,3.00
2023-03-27T08:05:59.949Z,10.02
2023-03-27T08:08:27.306Z,5.10
2023-03-27T08:10:55.430Z,7.65
2023-03-27T08:13:21.960Z,8.30
2023-03-27T08:15:48.506Z,1.52
2023-03-27T08:18:14.996Z,0.63
2023-03-27T08:20:42.403Z,5.15
2023-03-27T08:23:08.897Z,7.78
2023-03-27T08:25:35.676Z,4.50
2023-03-27T08:28:02.838Z,2.25
2023-03-27T08:30:30.167Z,7.22
2023-03-27T08:32:57.813Z,3.75
2023-03-27T08:35:24.354Z,8.52
2023-03-27T08:37:52.741Z,11.35
2023-03-27T08:40:28.003Z,5.75
2023-03-27T08:45:29.726Z,9.00
2023-03-27T08:48:07.318Z,5.05
2023-03-27T08:50:40.996Z,6.00
2023-03-27T08:53:17.762Z,12.18
2023-03-27T08:55:44.581Z,7.22
2023-03-27T08:58:20.342Z,1.98
2023-03-27T09:00:55.081Z,6.70
2023-03-27T09:03:28.591Z,0.55
2023-03-27T09:06:08.610Z,4.88
2023-03-27T09:09:03.942Z,3.35
2023-03-27T09:12:00.352Z,9.70
2023-03-27T09:14:31.306Z,7.93
2023-03-27T09:17:04.729Z,10.15
2023-03-27T09:19:44.098Z,3.95
2023-03-27T09:22:16.812Z,10.10
2023-03-27T09:24:47.121Z,5.32
2023-03-27T09:27:21.949Z,11.02
2023-03-27T09:30:14.324Z,9.93
2023-03-27T09:32:42.927Z,1.15
2023-03-27T09:35:15.332Z,2.05
2023-03-27T09:37:45.121Z,11.35
2023-03-27T09:40:25.571Z,2.80
2023-03-27T09:42:54.551Z,4.45
2023-03-27T09:45:21.746Z,4.88
2023-03-27T09:48:02.160Z,3.80
2023-03-27T09:50:34.915Z,6.80
2023-03-27T09:53:16.213Z,3.97
2023-03-27T09:55:52.711Z,5.40
2023-03-27T09:58:28.429Z,4.13
2023-03-27T10:01:13.748Z,1.15
2023-03-27T10:03:52.507Z,3.55
2023-03-27T10:06:30.943Z,3.80
2023-03-27T10:09:07.026Z,4.88
2023-03-27T10:11:35.585Z,0.77
2023-03-27T10:14:12.411Z,4.93
2023-03-27T10:16:41.548Z,6.07
2023-03-27T10:19:31.776Z,7.78
2023-03-27T10:22:07.584Z,9.77
2023-03-27T10:24:44.358Z,7.43
2023-03-27T10:27:26.518Z,7.53
2023-03-27T10:29:53.116Z,7.10
2023-03-27T10:32:40.316Z,7.60
2023-03-27T10:35:22.896Z,4.72
2023-03-27T10:37:51.459Z,5.97
2023-03-27T10:40:26.313Z,1.65
2023-03-27T10:42:56.771Z,4.30
2023-03-27T10:45:23.904Z,7.78
2023-03-27T10:48:00.854Z,4.15
2023-03-27T10:50:38.397Z,0.90
2023-03-27T10:53:04.843Z,4.82
2023-03-27T10:55:48.472Z,6.28
2023-03-27T10:58:23.636Z,6.95
2023-03-27T11:01:19.365Z,1.88
2023-03-27T11:04:05.596Z,13.23
2023-03-27T11:06:38.224Z,1.30
2023-03-27T11:09:06.975Z,10.60
2023-03-27T11:11:42.584Z,4.57
2023-03-27T11:14:20.045Z,3.35
2023-03-27T11:16:53.742Z,6.45
2023-03-27T11:19:29.173Z,5.32
2023-03-27T11:22:02.567Z,2.20
2023-03-27T11:24:35.302Z,8.70
2023-03-27T11:27:09.963Z,2.47
2023-03-27T11:29:44.210Z,3.67
2023-03-27T11:32:33.612Z,4.60
2023-03-27T11:35:12.563Z,5.68
2023-03-27T11:37:47.141Z,2.00
2023-03-27T11:40:24.744Z,3.63
2023-03-27T11:42:51.328Z,1.38
2023-03-27T11:45:23.414Z,1.52
2023-03-27T11:48:28.414Z,4.05
2023-03-27T11:51:36.908Z,2.80
2023-03-27T11:54:44.289Z,1.60
2023-03-27T11:57:22.616Z,4.15
2023-03-27T12:00:06.133Z,1.33
2023-03-27T12:02:55.368Z,1.75
2023-03-27T12:05:46.690Z,8.68
2023-03-27T12:08:24.810Z,3.92
2023-03-27T12:10:54.634Z,5.38
2023-03-27T12:13:28.731Z,3.38
2023-03-27T12:16:40.207Z,3.33
2023-03-27T12:22:24.037Z,3.78
2023-03-27T12:25:22.200Z,8.07
2023-03-27T12:28:23.112Z,2.00
2023-03-27T12:31:03.980Z,5.60
2023-03-27T12:33:53.089Z,3.28
2023-03-27T12:36:24.388Z,7.28
2023-03-27T12:38:54.213Z,0.52
2023-03-27T12:41:24.655Z,2.03
2023-03-27T12:43:59.484Z,0.88
2023-03-27T12:46:29.168Z,5.35
2023-03-27T12:49:13.683Z,3.20
2023-03-27T12:51:47.454Z,1.50
2023-03-27T12:54:27.638Z,3.60
2023-03-27T12:57:27.219Z,6.95
2023-03-27T13:00:10.239Z,5.75
2023-03-27T13:02:57.540Z,5.18
2023-03-27T13:05:42.637Z,9.23
2023-03-27T13:08:29.906Z,4.80
2023-03-27T13:11:08.013Z,2.92
2023-03-27T13:13:46.487Z,12.20
2023-03-27T13:16:43.389Z,2.38
2023-03-27T13:19:09.980Z,1.70
2023-03-27T13:21:52.294Z,4.72
2023-03-27T13:24:52.730Z,4.03
2023-03-27T13:27:41.081Z,6.22
2023-03-27T13:30:47.060Z,0.55
2023-03-27T13:33:39.622Z,2.35
2023-03-27T13:36:17.540Z,3.03
2023-03-27T13:38:56.580Z,0.82
2023-03-27T13:41:38.669Z,3.05
2023-03-27T13:44:10.706Z,4.47
2023-03-27T13:46:39.368Z,0.28
2023-03-27T13:49:27.838Z,6.95
2023-03-27T13:52:16.675Z,2.67
2023-03-27T13:55:18.714Z,1.98
2023-03-27T13:58:18.865Z,2.15
2023-03-27T14:01:07.724Z,5.00
2023-03-27T14:03:58.873Z,5.53
2023-03-27T14:06:56.271Z,5.13
2023-03-27T14:09:50.510Z,1.80
2023-03-27T14:12:30.880Z,3.95
2023-03-27T14:15:09.281Z,6.95
2023-03-27T14:17:42.909Z,6.00
2023-03-27T14:20:21.057Z,2.22
2023-03-27T14:23:03.381Z,4.53
2023-03-27T14:25:36.477Z,3.15
2023-03-27T14:28:03.163Z,2.63
2023-03-27T14:30:41.264Z,3.92
2023-03-27T14:33:09.215Z,3.25
2023-03-27T14:35:42.390Z,4.07
2023-03-27T14:38:26.089Z,4.35
2023-03-27T14:41:20.395Z,4.18
2023-03-27T14:43:52.127Z,5.25
2023-03-27T14:46:24.053Z,0.98
2023-03-27T14:48:58.037Z,9.98
2023-03-27T14:51:37.015Z,4.00
2023-03-27T14:54:12.589Z,9.27
2023-03-27T14:56:47.633Z,2.85
2023-03-27T14:59:20.640Z,3.35
2023-03-27T15:01:49.846Z,7.18
2023-03-27T15:04:17.146Z,5.55
2023-03-27T15:06:43.667Z,1.85
2023-03-27T15:09:27.993Z,2.58
2023-03-27T15:11:56.076Z,2.25
2023-03-27T15:14:27.897Z,5.80
2023-03-27T15:17:01.388Z,8.45
2023-03-27T15:19:31.925Z,3.22
2023-03-27T15:22:23.395Z,5.82
2023-03-27T15:24:58.605Z,4.97
2023-03-27T15:27:29.902Z,3.97
2023-03-27T15:29:57.667Z,6.65
2023-03-27T15:32:30.897Z,1.33
2023-03-27T15:35:03.350Z,5.10
2023-03-27T15:37:31.724Z,6.90
2023-03-27T15:40:22.470Z,9.98
2023-03-27T15:42:51.643Z,7.63
2023-03-27T15:45:21.801Z,6.60
2023-03-27T15:48:01.802Z,4.78
2023-03-27T15:50:28.857Z,5.15
2023-03-27T15:52:58.213Z,5.55
2023-03-27T15:55:39.175Z,9.50
2023-03-27T15:58:23.283Z,2.20
2023-03-27T16:00:52.301Z,10.80
2023-03-27T16:03:23.211Z,5.65
2023-03-27T16:05:52.066Z,1.60
2023-03-27T16:08:36.637Z,7.38
2023-03-27T16:11:04.928Z,7.72
2023-03-27T16:13:54.680Z,2.30
2023-03-27T16:16:25.940Z,3.05
2023-03-27T16:18:53.385Z,1.45
2023-03-27T16:21:25.546Z,0.40
2023-03-27T16:23:52.099Z,2.25
2023-03-27T16:26:25.452Z,0.75
2023-03-27T16:28:55.036Z,3.38
2023-03-27T16:31:21.498Z,3.55
2023-03-27T16:33:48.056Z,4.32
2023-03-27T16:36:31.210Z,4.68
2023-03-27T16:38:57.718Z,4.10
2023-03-27T16:41:24.278Z,4.60
2023-03-27T16:44:02.179Z,3.33
2023-03-27T16:46:30.558Z,3.28
2023-03-27T16:48:58.312Z,3.10
2023-03-27T16:51:27.312Z,7.10
2023-03-27T16:53:54.018Z,7.72
2023-03-27T16:56:21.221Z,5.80
2023-03-27T16:58:47.703Z,3.58
2023-03-27T17:01:17.093Z,6.38
2023-03-27T17:03:43.747Z,3.13
2023-03-27T17:06:12.733Z,4.45
2023-03-27T17:08:39.503Z,5.35
2023-03-27T17:11:09.084Z,3.38
2023-03-27T17:13:36.600Z,8.68
2023-03-27T17:16:03.789Z,2.25
2023-03-27T17:18:30.274Z,5.57
2023-03-27T17:20:57.210Z,2.85
2023-03-27T17:23:24.026Z,6.40
2023-03-27T17:25:50.824Z,11.27
2023-03-27T17:28:20.300Z,4.78
2023-03-27T17:30:56.620Z,5.40
2023-03-27T17:33:28.496Z,7.07
2023-03-27T17:35:57.110Z,2.95
2023-03-27T17:38:24.125Z,4.25
2023-03-27T17:40:51.445Z,6.68
2023-03-27T17:43:18.339Z,4.40
2023-03-27T17:45:44.996Z,5.82
2023-03-27T17:48:11.776Z,5.07
2023-03-27T17:50:39.294Z,5.28
2023-03-27T17:53:05.819Z,8.90
2023-03-27T17:55:39.042Z,6.97
2023-03-27T17:58:09.811Z,4.78
2023-03-27T18:00:41.261Z,9.27
2023-03-27T18:03:09.012Z,6.85
2023-03-27T18:05:40.194Z,11.20
2023-03-27T18:08:11.528Z,1.65
2023-03-27T18:10:50.257Z,4.05
2023-03-27T18:13:29.943Z,6.07
2023-03-27T18:15:58.226Z,6.95
2023-03-27T18:18:25.523Z,7.28
2023-03-27T18:20:53.141Z,4.72
2023-03-27T18:23:20.293Z,6.75
2023-03-27T18:25:46.827Z,4.63
2023-03-27T18:28:13.505Z,6.55
2023-03-27T18:30:40.086Z,11.18
2023-03-27T18:33:06.693Z,11.65
2023-03-27T18:35:36.400Z,5.65
2023-03-27T18:38:03.879Z,9.27
2023-03-27T18:40:32.750Z,12.77
2023-03-27T18:42:59.333Z,13.65
2023-03-27T18:45:37.863Z,6.00
2023-03-27T18:48:04.491Z,6.30
2023-03-27T18:50:31.290Z,6.20
2023-03-27T18:52:57.743Z,17.23
2023-03-27T18:55:24.277Z,3.55
2023-03-27T18:57:50.916Z,8.48
2023-03-27T19:00:20.252Z,10.98
2023-03-27T19:02:48.962Z,11.18
2023-03-27T19:05:17.010Z,10.85
2023-03-27T19:07:44.910Z,13.68
2023-03-27T19:10:12.680Z,10.00
2023-03-27T19:12:39.306Z,10.88
2023-03-27T19:15:18.969Z,6.90
2023-03-27T19:17:46.596Z,8.20
2023-03-27T19:20:13.733Z,7.40
2023-03-27T19:22:40.209Z,5.68
2023-03-27T19:25:07.325Z,11.50
2023-03-27T19:27:38.813Z,11.93
2023-03-27T19:30:07.574Z,7.93
2023-03-27T19:32:34.166Z,9.70
2023-03-27T19:35:00.763Z,8.32
2023-03-27T19:37:27.916Z,16.30
2023-03-27T19:39:55.143Z,9.68
2023-03-27T19:42:21.637Z,13.55
2023-03-27T19:44:48.076Z,13.25
2023-03-27T19:47:14.512Z,9.23
2023-03-27T19:49:42.575Z,12.05
2023-03-27T19:52:09.763Z,14.48
2023-03-27T19:54:36.218Z,10.75
2023-03-27T19:57:02.815Z,9.90
2023-03-27T19:59:31.011Z,7.75
2023-03-27T20:01:58.118Z,6.15
2023-03-27T20:04:24.767Z,9.07
2023-03-27T20:06:51.476Z,9.00
2023-03-27T20:09:18.948Z,11.77
2023-03-27T20:11:46.348Z,7.50
2023-03-27T20:14:13.372Z,17.83
2023-03-27T20:16:39.972Z,8.13
2023-03-27T20:19:06.848Z,7.30
2023-03-27T20:21:36.164Z,2.22
2023-03-27T20:24:03.371Z,5.18
2023-03-27T20:26:29.945Z,9.13
2023-03-27T20:28:56.478Z,5.97
2023-03-27T20:31:23.057Z,11.73
2023-03-27T20:33:49.880Z,9.98
2023-03-27T20:36:19.695Z,7.32
2023-03-27T20:38:46.411Z,9.38
2023-03-27T20:41:15.894Z,5.45
2023-03-27T20:43:45.743Z,7.53
2023-03-27T20:46:14.177Z,12.57
2023-03-27T20:48:41.682Z,10.15
2023-03-27T20:51:24.105Z,11.60
2023-03-27T20:53:58.101Z,13.85
2023-03-27T20:56:24.881Z,13.00
2023-03-27T20:58:51.664Z,6.85
2023-03-27T21:01:27.849Z,12.73
2023-03-27T21:03:58.108Z,13.63
2023-03-27T21:06:25.771Z,9.65
2023-03-27T21:08:52.192Z,9.52
2023-03-27T21:11:18.766Z,9.00
2023-03-27T21:13:45.627Z,12.35
2023-03-27T21:16:12.120Z,9.05
2023-03-27T21:18:38.844Z,14.27
2023-03-27T21:21:05.638Z,7.60
2023-03-27T21:23:32.175Z,9.05
2023-03-27T21:25:58.851Z,10.35
2023-03-27T21:28:25.656Z,13.18
2023-03-27T21:30:52.208Z,11.93
2023-03-27T21:33:18.797Z,12.77
2023-03-27T21:35:47.169Z,9.40
2023-03-27T21:38:15.579Z,11.95
2023-03-27T21:40:42.124Z,14.02
2023-03-27T21:43:09.136Z,11.02
2023-03-27T21:45:36.580Z,5.07
2023-03-27T21:48:03.656Z,4.28
2023-03-27T21:50:30.310Z,12.32
2023-03-27T21:52:57.251Z,9.68
2023-03-27T21:55:23.691Z,17.35
2023-03-27T21:57:51.183Z,14.10
2023-03-27T22:00:17.953Z,13.23
2023-03-27T22:02:44.534Z,16.38
2023-03-27T22:05:11.065Z,13.90
2023-03-27T22:07:37.519Z,10.05
2023-03-27T22:10:06.402Z,11.10
2023-03-27T22:12:37.411Z,7.78
2023-03-27T22:15:06.908Z,10.35
2023-03-27T22:17:36.279Z,10.20
2023-03-27T22:20:04.534Z,4.90
2023-03-27T22:22:31.230Z,7.43
2023-03-27T22:24:57.635Z,7.68
2023-03-27T22:27:24.091Z,13.82
2023-03-27T22:29:50.742Z,11.50
2023-03-27T22:32:17.188Z,8.68
2023-03-27T22:34:43.652Z,15.18
2023-03-27T22:37:10.210Z,9.80
2023-03-27T22:39:36.738Z,8.85
2023-03-27T22:42:03.251Z,10.95
2023-03-27T22:44:30.948Z,13.00
2023-03-27T22:46:58.892Z,10.98
2023-03-27T22:49:26.149Z,18.73
2023-03-27T22:51:52.643Z,10.27
2023-03-27T22:54:19.369Z,12.75
2023-03-27T22:56:46.930Z,10.45
2023-03-27T22:59:14.340Z,10.10
2023-03-27T23:01:40.994Z,14.20
2023-03-27T23:04:07.576Z,14.15
2023-03-27T23:06:34.081Z,15.00
2023-03-27T23:09:00.736Z,10.15
2023-03-27T23:11:27.201Z,14.57
2023-03-27T23:13:53.662Z,7.53
2023-03-27T23:16:20.339Z,14.20
2023-03-27T23:18:46.874Z,9.57
2023-03-27T23:21:16.434Z,15.75
2023-03-27T23:23:43.430Z,13.73
2023-03-27T23:26:10.399Z,9.35
2023-03-27T23:28:39.499Z,13.85
2023-03-27T23:31:10.393Z,14.23
2023-03-27T23:33:39.013Z,18.42
2023-03-27T23:36:25.378Z,15.82
2023-03-27T23:38:52.985Z,19.27
2023-03-27T23:41:20.203Z,15.18
2023-03-27T23:43:46.848Z,22.08
2023-03-27T23:46:14.098Z,13.02
2023-03-27T23:48:42.415Z,26.13
2023-03-27T23:51:10.228Z,14.02
2023-03-27T23:53:37.190Z,8.60
2023-03-27T23:56:04.006Z,21.75
2023-03-27T23:58:33.926Z,18.42
